Time;durP1;ratioP1;P1;durP2;ratioP2;P2;SDS_P1;SDS_P2;PMS_P1;PMS_P2;Temp;Humidity;BMP_temperature;BMP_pressure;BME280_temperature;BME280_humidity;BME280_pressure;Samples;Min_cycle;Max_cycle;Signal;HPM_P1;HPM_P2
2022/07/07 00:05:38;;;;;;;1.40;1.23;;;;;;;19.05;88.02;101531.63;20968570;28;20061;-76
2022/07/07 00:15:42;;;;;;;1.35;1.13;;;;;;;19.05;87.88;101520.81;20968380;28;20044;-76
2022/07/07 00:25:44;;;;;;;1.17;1.00;;;;;;;19.05;88.17;101493.84;20882941;28;20079;-76
2022/07/07 00:35:45;;;;;;;2.75;1.30;;;;;;;19.04;88.50;101484.88;20884356;28;20049;-76
2022/07/07 00:45:50;;;;;;;1.40;1.13;;;;;;;18.88;88.57;101460.16;20847724;28;1073040;-76
2022/07/07 00:55:52;;;;;;;1.40;1.10;;;;;;;19.03;88.68;101452.63;20944352;28;20078;-76
2022/07/07 01:05:54;;;;;;;1.15;1.05;;;;;;;18.51;88.91;101340.03;20969089;28;20123;-76
2022/07/07 01:15:55;;;;;;;1.20;1.10;;;;;;;19.03;89.01;101421.09;20966765;28;20109;-76
2022/07/07 01:25:57;;;;;;;2.13;1.10;;;;;;;19.03;89.06;101410.28;20967170;28;20094;-76
2022/07/07 01:35:58;;;;;;;1.23;1.00;;;;;;;19.02;89.16;101408.59;20966361;28;20044;-76
2022/07/07 01:46:00;;;;;;;1.33;0.90;;;;;;;19.04;89.37;101405.78;20956259;28;20689;-77
2022/07/07 01:56:03;;;;;;;1.30;1.10;;;;;;;18.96;89.27;101391.03;20957974;28;20132;-76
2022/07/07 02:06:05;;;;;;;1.20;1.10;;;;;;;19.03;89.40;101387.88;20963200;28;20054;-76
2022/07/07 02:16:06;;;;;;;0.85;0.80;;;;;;;19.03;89.68;101383.31;20963492;28;20048;-76
2022/07/07 02:26:08;;;;;;;1.30;0.98;;;;;;;19.02;89.89;101378.06;20963596;28;20111;-76
2022/07/07 02:36:10;;;;;;;0.93;0.90;;;;;;;18.94;89.83;101346.31;20961678;28;20044;-76
2022/07/07 02:46:12;;;;;;;1.02;1.00;;;;;;;19.02;90.06;101351.91;20950559;28;20040;-76
2022/07/07 02:56:14;;;;;;;0.93;0.73;;;;;;;19.02;89.92;101321.41;20962868;28;20075;-76
2022/07/07 03:06:15;;;;;;;0.68;0.68;;;;;;;19.02;90.38;101324.09;20944429;28;20052;-76
2022/07/07 03:16:17;;;;;;;0.85;0.80;;;;;;;18.81;90.35;101298.81;20961111;28;20098;-76
2022/07/07 03:26:18;;;;;;;1.17;1.08;;;;;;;19.01;90.39;101344.81;20927398;28;20516;-76
2022/07/07 03:36:20;;;;;;;0.95;0.70;;;;;;;19.01;90.54;101335.88;20939132;28;20140;-76
2022/07/07 03:46:22;;;;;;;1.35;1.00;;;;;;;19.01;90.57;101335.88;20861490;28;20480;-76
2022/07/07 03:56:23;;;;;;;0.88;0.80;;;;;;;18.99;90.57;101323.34;20974887;28;20037;-76
2022/07/07 04:06:25;;;;;;;0.80;0.68;;;;;;;18.80;90.61;101296.25;20973471;28;20452;-76
2022/07/07 04:16:29;;;;;;;0.60;0.60;;;;;;;18.95;90.67;101329.13;20971245;28;20037;-76
2022/07/07 04:26:30;;;;;;;0.70;0.70;;;;;;;18.99;90.79;101347.63;20867269;28;20051;-77
2022/07/07 04:36:32;;;;;;;0.80;0.70;;;;;;;18.99;90.69;101361.13;20833891;28;20075;-77
2022/07/07 04:46:33;;;;;;;2.15;0.70;;;;;;;18.89;90.61;101360.19;20908668;28;20052;-78
2022/07/07 04:56:35;;;;;;;1.48;0.70;;;;;;;18.70;90.40;101334.78;20927796;28;20052;-77
2022/07/07 05:06:37;;;;;;;4.32;0.90;;;;;;;19.05;93.48;101402.09;20886814;28;20061;-75
2022/07/07 05:16:38;;;;;;;6.78;0.88;;;;;;;19.13;92.05;101416.59;20880503;28;20072;-74
2022/07/07 05:26:40;;;;;;;3.75;0.88;;;;;;;19.17;91.16;101414.50;20870552;28;20076;-75
2022/07/07 05:36:42;;;;;;;3.22;1.05;;;;;;;19.20;90.49;101445.75;20867078;28;20045;-75
2022/07/07 05:46:43;;;;;;;2.65;0.95;;;;;;;19.20;90.71;101454.75;20828171;28;20099;-75
2022/07/07 05:56:45;;;;;;;3.75;0.80;;;;;;;19.22;91.78;101478.88;20890206;28;20456;-75
2022/07/07 06:06:46;;;;;;;2.95;1.00;;;;;;;19.15;91.04;101483.97;20881442;28;20045;-75
2022/07/07 06:16:48;;;;;;;3.13;0.70;;;;;;;19.13;91.17;101507.53;20865653;28;20041;-75
2022/07/07 06:26:49;;;;;;;4.20;0.90;;;;;;;19.10;91.30;101518.59;20876084;28;20071;-75
2022/07/07 06:36:51;;;;;;;3.17;1.10;;;;;;;19.02;91.51;101526.47;20881010;28;20060;-75
2022/07/07 06:46:53;;;;;;;3.70;0.98;;;;;;;19.08;91.15;101536.75;20879912;28;20060;-79
2022/07/07 06:56:54;;;;;;;3.30;0.90;;;;;;;18.54;90.68;101467.38;20840519;28;22283;-77
2022/07/07 07:06:56;;;;;;;7.65;1.23;;;;;;;19.01;90.20;101557.16;20856062;28;20472;-77
2022/07/07 07:16:57;;;;;;;10.50;0.95;;;;;;;19.01;90.36;101568.78;20870253;28;20127;-77
2022/07/07 07:26:59;;;;;;;2.92;0.80;;;;;;;19.09;90.00;101569.00;20866010;28;20128;-76
2022/07/07 07:37:00;;;;;;;3.47;0.70;;;;;;;19.15;90.02;101602.72;20846347;28;20056;-76
2022/07/07 07:47:02;;;;;;;2.50;0.90;;;;;;;19.13;90.14;101610.94;20783120;28;20057;-77
2022/07/07 07:57:04;;;;;;;1.92;0.60;;;;;;;19.11;89.86;101617.47;20814959;28;20081;-77
2022/07/07 08:07:06;;;;;;;3.47;0.80;;;;;;;18.96;90.49;101596.09;20875206;28;20045;-77
2022/07/07 08:17:08;;;;;;;3.40;0.50;;;;;;;19.16;91.32;101626.03;20857388;28;20048;-77
2022/07/07 08:27:10;;;;;;;1.38;0.50;;;;;;;19.20;91.63;101632.88;20862297;28;20505;-78
2022/07/07 08:37:12;;;;;;;2.92;0.70;;;;;;;19.12;92.28;101638.91;20856011;28;20091;-76
2022/07/07 08:47:14;;;;;;;1.25;0.60;;;;;;;19.20;92.60;101642.81;20857271;28;20057;-77
2022/07/07 08:57:16;;;;;;;1.92;0.57;;;;;;;19.31;93.68;101660.81;20855245;28;20051;-79
2022/07/07 09:07:19;;;;;;;3.30;0.60;;;;;;;19.24;93.77;101687.50;20870305;28;20056;-77
2022/07/07 09:17:29;;;;;;;3.10;0.70;;;;;;;18.41;93.65;101572.66;20870281;28;20048;-79
2022/07/07 09:27:48;;;;;;;2.63;0.68;;;;;;;19.14;93.94;101703.56;20858664;28;20048;-78
2022/07/07 09:38:14;;;;;;;2.72;0.80;;;;;;;19.09;94.35;101712.03;20833723;28;20463;-77
2022/07/07 09:48:16;;;;;;;3.80;0.90;;;;;;;18.90;94.08;101711.78;20853929;28;20079;-78
2022/07/07 09:58:17;;;;;;;1.65;0.50;;;;;;;19.08;94.36;101768.84;20855207;28;20061;-78
2022/07/07 10:08:19;;;;;;;4.28;0.80;;;;;;;19.02;96.55;101769.34;20842578;28;20060;-77
2022/07/07 10:18:21;;;;;;;2.00;0.52;;;;;;;18.93;98.26;101758.25;20773648;28;20568;-77
2022/07/07 10:28:53;;;;;;;1.88;0.60;;;;;;;19.05;98.84;101806.88;20835431;28;20140;-77
2022/07/07 10:38:57;;;;;;;3.08;0.80;;;;;;;18.95;97.78;101812.94;20846593;28;20044;-78
2022/07/07 10:49:10;;;;;;;1.77;0.80;;;;;;;18.88;97.56;101830.59;20867408;28;20041;-77
2022/07/07 10:59:11;;;;;;;3.47;1.00;;;;;;;18.99;97.43;101859.47;20856301;28;20052;-78
2022/07/07 11:09:13;;;;;;;3.35;0.82;;;;;;;18.76;97.42;101850.44;20869798;28;20148;-77
2022/07/07 11:19:16;;;;;;;4.63;1.15;;;;;;;18.94;96.04;101907.53;20837550;28;20128;-78
2022/07/07 11:29:18;;;;;;;4.15;1.27;;;;;;;18.87;94.86;101907.13;20853787;28;20065;-75
2022/07/07 11:39:19;;;;;;;5.40;1.20;;;;;;;18.93;94.50;101954.38;20781450;28;20053;-76
2022/07/07 11:49:21;;;;;;;4.55;1.20;;;;;;;18.91;93.43;101949.06;20783663;28;20104;-75
2022/07/07 11:59:23;;;;;;;5.00;1.20;;;;;;;18.96;92.76;101992.75;20863682;28;20053;-76
2022/07/07 12:09:25;;;;;;;5.78;1.83;;;;;;;18.95;90.43;101985.63;20866312;28;20053;-77
2022/07/07 12:19:27;;;;;;;7.43;1.88;;;;;;;18.95;88.09;102009.09;20844006;28;21033;-77
2022/07/07 12:29:29;;;;;;;7.28;1.42;;;;;;;18.91;86.08;102000.34;20827729;28;20058;-76
2022/07/07 12:39:33;;;;;;;6.15;1.38;;;;;;;18.84;83.68;102017.97;20858934;28;20049;-78
2022/07/07 12:49:34;;;;;;;7.05;1.42;;;;;;;18.84;81.93;102018.84;20814394;28;20053;-77
2022/07/07 12:59:37;;;;;;;7.55;2.10;;;;;;;18.87;80.89;102042.03;20856860;28;20049;-77
2022/07/07 13:09:38;;;;;;;6.53;1.92;;;;;;;18.72;80.25;102045.88;20860270;28;20049;-77
2022/07/07 13:19:40;;;;;;;6.97;1.63;;;;;;;18.76;79.65;102056.31;20841858;28;20049;-76
2022/07/07 13:29:42;;;;;;;6.15;2.15;;;;;;;18.84;80.13;102080.03;20864418;28;20046;-77
2022/07/07 13:39:43;;;;;;;5.55;1.63;;;;;;;18.82;79.66;102098.19;20817008;28;20045;-79
2022/07/07 13:49:47;;;;;;;5.70;1.50;;;;;;;18.75;78.22;102122.03;20851758;28;20050;-78
2022/07/07 14:00:09;;;;;;;6.40;1.67;;;;;;;18.52;78.42;102096.75;20851642;28;20131;-76
2022/07/07 14:10:12;;;;;;;6.18;1.40;;;;;;;18.76;79.28;102139.09;20857917;28;20056;-76
2022/07/07 14:20:14;;;;;;;3.95;1.20;;;;;;;18.83;79.54;102138.53;20839077;28;20056;-76
2022/07/07 14:30:15;;;;;;;7.88;1.90;;;;;;;18.84;79.68;102155.56;20864862;28;20151;-77
2022/07/07 14:40:17;;;;;;;4.38;1.50;;;;;;;18.84;79.48;102169.06;20851342;28;20633;-76
2022/07/07 14:50:18;;;;;;;5.47;1.33;;;;;;;18.85;79.91;102168.09;20836189;28;20049;-77
2022/07/07 15:00:20;;;;;;;7.57;1.60;;;;;;;18.86;79.81;102186.00;20849595;28;20048;-76
2022/07/07 15:10:22;;;;;;;7.57;1.52;;;;;;;18.86;79.55;102188.72;20846091;28;20146;-76
2022/07/07 15:20:24;;;;;;;4.97;1.55;;;;;;;18.85;79.34;102195.06;20800312;28;20049;-76
2022/07/07 15:30:25;;;;;;;5.85;1.60;;;;;;;18.84;79.49;102209.53;20776958;28;20049;-76
2022/07/07 15:40:27;;;;;;;6.50;1.80;;;;;;;18.84;79.23;102223.03;20774466;28;20498;-76
2022/07/07 15:50:28;;;;;;;5.90;1.38;;;;;;;18.74;78.61;102219.28;20798960;28;20055;-76
2022/07/07 16:00:30;;;;;;;3.53;1.38;;;;;;;18.82;78.27;102233.06;20864445;28;20057;-76
2022/07/07 16:10:32;;;;;;;7.15;1.30;;;;;;;18.82;78.06;102250.13;20823892;28;20053;-77
2022/07/07 16:20:33;;;;;;;8.45;1.80;;;;;;;18.81;77.59;102248.41;20785241;28;20136;-75
2022/07/07 16:30:35;;;;;;;4.57;1.20;;;;;;;18.81;77.37;102252.94;20821481;28;20197;-74
2022/07/07 16:40:36;;;;;;;2.88;1.00;;;;;;;18.83;77.93;102251.00;20861833;28;20061;-75
2022/07/07 16:50:40;;;;;;;5.95;1.17;;;;;;;18.67;78.14;102232.31;20850283;28;20130;-75
2022/07/07 17:00:42;;;;;;;5.70;1.13;;;;;;;18.86;78.43;102276.91;20862089;28;20072;-75
2022/07/07 17:10:44;;;;;;;2.58;0.93;;;;;;;18.82;78.84;102284.34;20864703;28;20049;-75
2022/07/07 17:20:46;;;;;;;3.55;1.00;;;;;;;18.84;78.88;102285.09;20846123;28;20052;-75
2022/07/07 17:30:48;;;;;;;2.88;1.00;;;;;;;18.87;79.23;102302.91;20877293;28;20073;-75
2022/07/07 17:40:51;;;;;;;2.85;0.85;;;;;;;18.84;79.39;102285.09;20831351;28;20049;-75
2022/07/07 17:50:52;;;;;;;3.63;1.00;;;;;;;18.78;79.73;102291.81;20811544;28;20052;-74
2022/07/07 18:00:54;;;;;;;2.55;0.90;;;;;;;18.87;79.47;102316.41;20798509;28;20053;-75
2022/07/07 18:10:57;;;;;;;2.60;1.00;;;;;;;18.85;79.70;102324.59;20799377;28;20083;-74
2022/07/07 18:20:59;;;;;;;2.28;1.20;;;;;;;18.71;79.75;102322.84;20797140;28;20513;-75
2022/07/07 18:31:02;;;;;;;3.17;1.10;;;;;;;18.70;79.83;102327.41;20835878;28;20045;-75
2022/07/07 18:41:04;;;;;;;3.33;1.20;;;;;;;18.78;79.52;102345.75;20797726;28;20132;-75
2022/07/07 19:01:26;;;;;;;2.58;0.80;;;;;;;18.77;79.38;102381.78;20842638;28;20057;-75
2022/07/07 19:11:28;;;;;;;3.25;0.80;;;;;;;18.55;79.18;102366.19;20813105;28;20046;-75
2022/07/07 19:21:30;;;;;;;2.63;0.90;;;;;;;18.76;78.98;102401.63;20886788;28;20123;-75
2022/07/07 19:31:32;;;;;;;5.90;0.85;;;;;;;18.76;78.88;102384.59;20892504;28;20139;-75
2022/07/07 19:41:34;;;;;;;2.40;0.90;;;;;;;18.20;78.83;102340.66;20892064;28;20045;-75
2022/07/07 19:51:37;;;;;;;3.05;0.82;;;;;;;18.74;78.58;102440.50;20893735;28;20077;-75
2022/07/07 20:01:39;;;;;;;2.72;1.20;;;;;;;18.75;78.65;102461.09;20891249;28;20505;-75
2022/07/07 20:11:41;;;;;;;2.90;0.98;;;;;;;18.75;78.38;102463.81;20891408;28;20041;-75
2022/07/07 20:21:42;;;;;;;3.72;0.82;;;;;;;18.74;78.41;102470.16;20888793;28;20132;-75
2022/07/07 20:31:46;;;;;;;2.00;0.80;;;;;;;18.73;78.40;102477.38;20886547;28;20053;-75
2022/07/07 20:41:54;;;;;;;2.83;0.63;;;;;;;18.73;78.40;102493.56;20887213;28;20502;-75
2022/07/07 20:51:56;;;;;;;2.13;0.90;;;;;;;18.73;78.36;102501.66;20887014;28;20074;-75
2022/07/07 21:02:00;;;;;;;2.47;0.88;;;;;;;18.72;78.21;102505.34;20891300;28;20057;-75
2022/07/07 21:12:04;;;;;;;2.00;0.80;;;;;;;18.62;78.22;102506.91;20884249;28;20049;-75
2022/07/07 21:22:05;;;;;;;2.85;0.75;;;;;;;18.70;78.10;102521.63;20884171;28;20044;-75
2022/07/07 21:32:09;;;;;;;1.95;0.63;;;;;;;18.72;78.23;102534.16;20885222;28;20079;-74
2022/07/07 21:42:14;;;;;;;2.20;1.00;;;;;;;18.72;78.31;102544.94;20883131;28;20386;-75
2022/07/07 21:52:15;;;;;;;1.77;0.67;;;;;;;18.55;78.16;102517.22;20883460;28;20056;-75
2022/07/07 22:02:17;;;;;;;2.90;1.00;;;;;;;18.70;78.08;102554.00;20881225;28;20057;-74
2022/07/07 22:12:19;;;;;;;2.58;0.70;;;;;;;18.69;78.27;102557.69;20882722;28;20049;-75
2022/07/07 22:22:21;;;;;;;3.22;1.10;;;;;;;18.57;78.05;102557.59;20879595;28;20049;-75
2022/07/07 22:32:22;;;;;;;2.72;0.90;;;;;;;18.69;78.26;102576.56;20881111;28;20076;-75
2022/07/07 22:42:24;;;;;;;3.28;1.05;;;;;;;18.69;77.97;102584.66;20879061;28;20049;-75
2022/07/07 22:52:25;;;;;;;1.90;1.05;;;;;;;18.65;77.96;102588.53;20862447;28;20110;-75
2022/07/07 23:02:27;;;;;;;2.17;0.80;;;;;;;18.46;77.91;102566.38;20879650;28;20060;-75
2022/07/07 23:12:29;;;;;;;1.70;0.73;;;;;;;18.69;77.89;102599.97;20878177;28;20049;-75
2022/07/07 23:22:30;;;;;;;1.98;0.85;;;;;;;18.48;78.01;102565.34;20877392;28;20044;-76
2022/07/07 23:32:32;;;;;;;2.53;0.98;;;;;;;18.67;77.60;102591.97;20877108;28;20056;-75
2022/07/07 23:42:34;;;;;;;1.80;0.80;;;;;;;18.48;77.60;102569.84;20879185;28;20131;-75
2022/07/07 23:52:36;;;;;;;2.47;0.73;;;;;;;18.67;77.51;102599.19;20885122;28;20073;-75
